Latest Weather Observations for Low Head

IDT60801

Issued at 7:02 am EDT Saturday 7 March 2015 (issued every 30 minutes, with the page automatically refreshed every 10 minutes)

About weather observations | Map of weather stations | Latest weather observations for TAS | Other Formats
Station Details ID: 091293 Name: LOW HEAD Lat: -41.05 Lon: 146.79 Height: 3.0 m
Data from the previous 72 hours. | See also: Recent months at Low Head
Date/Time
EDT
Temp
°C
App
Temp
°C
Dew
Point
Rel
Hum
%
Delta-T
°C
Wind Press
QNH
hPa
Press
MSL
hPa
Rain
since 9 am
mm
Dir
 
Spd
km/h
Gust
km/h
Spd
kts
Gust
kts
07/07:00am 16.0 11.3 13.3 84 1.5 WNW 30 35 16 19 1005.4 1005.4 0.0
07/06:30am 15.6 11.5 12.7 83 1.6 WNW 26 32 14 17 1005.4 1005.4 0.0
07/06:00am 15.4 11.5 12.0 80 1.9 WNW 24 32 13 17 1005.4 1005.4 0.0
07/05:30am 15.7 10.6 11.9 78 2.1 W 30 35 16 19 1005.7 1005.7 0.0
07/05:27am 15.7 11.4 11.9 78 2.1 W 26 35 14 19 1005.7 1005.7 0.0
07/05:00am 14.8 12.6 9.4 70 2.8 W 11 17 6 9 1006.0 1006.0 0.0
07/04:30am 13.9 12.5 8.7 71 2.6 NW 6 9 3 5 1006.1 1006.1 0.0
07/04:00am 13.2 12.1 8.3 72 2.4 SE 4 7 2 4 1006.1 1006.1 0.0
07/03:30am 13.4 11.4 8.7 73 2.4 SSW 9 13 5 7 1006.6 1006.6 0.0
07/03:00am 13.2 11.6 8.7 74 2.3 SW 7 9 4 5 1006.8 1006.8 0.0
07/02:30am 12.2 10.3 7.7 74 2.2 SSE 7 13 4 7 1007.0 1007.0 0.0
07/02:00am 11.9 8.5 7.6 75 2.1 ESE 15 19 8 10 1007.1 1007.1 0.0
07/01:30am 12.4 7.4 8.1 75 2.1 E 24 30 13 16 1006.9 1006.9 0.0
07/01:00am 12.7 8.2 8.4 75 2.1 E 22 26 12 14 1007.2 1007.2 0.0
07/12:30am 13.4 9.5 8.5 72 2.4 E 19 30 10 16 1007.1 1007.1 0.0
07/12:00am 15.5 12.2 9.6 68 3.1 W 17 20 9 11 1006.8 1006.8 0.0
 
Date/Time
EDT
Temp
°C
App
Temp
°C
Dew
Point
Rel
Hum
%
Delta-T
°C
Wind Press
QNH
hPa
Press
MSL
hPa
Rain
since 9 am
mm
Dir
 
Spd
km/h
Gust
km/h
Spd
kts
Gust
kts
06/11:30pm 15.5 11.5 9.0 65 3.3 W 20 26 11 14 1006.7 1006.7 0.0
06/11:00pm 16.0 11.4 9.7 66 3.3 W 24 28 13 15 1006.7 1006.7 0.0
06/10:30pm 16.3 11.3 9.7 65 3.4 W 26 30 14 16 1006.7 1006.7 0.0
06/10:00pm 16.5 11.9 9.7 64 3.6 W 24 28 13 15 1006.4 1006.4 0.0
06/09:30pm 16.9 11.2 9.8 63 3.7 W 30 35 16 19 1006.3 1006.3 0.0
06/09:00pm 17.3 11.3 10.2 63 3.8 W 32 37 17 20 1006.1 1006.1 0.0
06/08:30pm 17.6 11.4 10.0 61 4.0 W 33 39 18 21 1005.8 1005.8 0.0
06/08:00pm 17.7 10.2 9.6 59 4.3 W 39 43 21 23 1005.5 1005.5 0.0
06/07:30pm 18.1 10.4 10.0 59 4.3 W 41 44 22 24 1004.8 1004.8 0.0
06/07:00pm 18.5 11.5 9.8 57 4.6 W 37 43 20 23 1004.5 1004.5 0.0
06/06:30pm 18.8 11.8 10.1 57 4.6 W 37 43 20 23 1004.3 1004.3 0.0
06/06:00pm 19.1 11.9 9.3 53 5.2 W 37 43 20 23 1004.0 1004.0 0.0
06/05:30pm 19.2 12.1 9.7 54 5.0 WNW 37 43 20 23 1003.8 1003.8 0.0
06/05:00pm 19.3 12.3 10.0 55 5.0 W 37 43 20 23 1003.5 1003.5 0.0
06/04:30pm 19.4 12.2 9.3 52 5.3 WNW 37 43 20 23 1003.4 1003.4 0.0
06/04:00pm 19.2 11.7 9.4 53 5.2 WNW 39 48 21 26 1003.0 1003.0 0.0
06/03:30pm 19.3 11.7 8.9 51 5.4 WNW 39 46 21 25 1002.9 1002.9 0.0
06/03:00pm 19.7 11.7 7.4 45 6.3 W 39 44 21 24 1002.9 1002.9 0.0
06/02:30pm 19.5 11.8 8.8 50 5.6 W 39 43 21 23 1002.3 1002.3 0.0
06/02:00pm 19.1 12.2 9.0 52 5.3 W 35 41 19 22 1002.2 1002.2 0.0
06/01:30pm 18.9 11.4 8.0 49 5.6 W 37 44 20 24 1002.0 1002.0 0.0
06/01:00pm 18.6 10.7 7.7 49 5.6 W 39 46 21 25 1001.8 1001.8 0.0
06/12:30pm 18.2 9.1 6.7 47 5.7 W 44 50 24 27 1001.5 1001.5 0.0
06/12:00pm 17.6 8.4 7.9 53 5.0 W 46 57 25 31 1001.1 1001.1 0.0
06/11:30am 17.4 8.7 8.3 55 4.7 W 44 50 24 27 1000.9 1000.9 0.0
06/11:20am 17.4 8.7 7.7 53 4.9 W 43 52 23 28 1000.8 1000.8 0.0
06/11:00am 17.8 10.8 7.0 49 5.4 WSW 33 41 18 22 1000.4 1000.4 0.0
06/10:30am 17.9 10.7 5.8 45 5.9 SW 33 43 18 23 1000.1 1000.1 0.0
06/10:00am 17.6 7.0 7.1 50 5.3 WSW 52 61 28 33 998.4 998.4 0.0
06/09:30am 17.2 7.9 6.1 48 5.4 SW 44 59 24 32 998.8 998.8 0.0
06/09:18am 17.2 7.9 6.1 48 5.4 WSW 44 63 24 34 998.4 998.4 0.0
06/09:00am 17.2 8.1 8.4 56 4.5 SW 46 56 25 30 997.5 997.5 0.0
06/08:30am 17.2 10.1 9.4 60 4.1 WSW 37 50 20 27 997.4 997.4 0.0
06/08:00am 17.2 10.3 8.9 58 4.3 WSW 35 46 19 25 996.7 996.7 0.0
06/07:30am 17.1 7.7 10.2 64 3.7 WSW 50 67 27 36 995.9 995.9 0.0
06/07:00am 17.4 8.0 10.3 63 3.8 WSW 50 67 27 36 995.6 995.6 0.0
06/06:37am 17.3 9.2 10.7 65 3.5 WSW 44 63 24 34 995.4 995.4 0.0
06/06:30am 17.3 8.9 10.9 66 3.4 WSW 46 57 25 31 995.2 995.2 0.0
06/06:00am 17.6 8.2 11.4 67 3.4 WSW 52 61 28 33 994.7 994.7 0.0
06/05:30am 17.4 8.4 11.7 69 3.1 W 50 63 27 34 994.7 994.7 0.0
06/05:00am 17.3 7.8 12.4 73 2.7 W 54 65 29 35 994.5 994.5 0.0
06/04:30am 16.8 7.1 11.9 73 2.7 W 54 67 29 36 994.9 994.9 0.0
06/04:00am 16.7 6.9 12.7 77 2.2 W 56 67 30 36 995.8 995.8 0.0
06/03:30am 16.2 5.3 12.2 77 2.2 WNW 61 74 33 40 996.0 996.0 0.0
06/03:00am 16.1 6.1 12.7 80 1.9 WNW 57 70 31 38 996.7 996.7 0.0
06/02:30am 15.6 5.1 12.2 80 1.9 WNW 59 70 32 38 997.9 997.9 0.0
06/02:00am 15.4 4.1 12.0 80 1.9 WNW 63 80 34 43 998.1 998.1 0.0
06/01:54am 15.3 4.3 11.9 80 1.8 WNW 61 80 33 43 998.4 998.4 0.0
06/01:30am 15.2 3.0 11.6 79 1.9 WNW 67 78 36 42 998.9 998.9 0.0
06/01:00am 14.9 3.7 11.3 79 1.9 WNW 61 80 33 43 999.5 999.5 0.0
06/12:30am 14.9 2.5 11.1 78 2.0 WNW 67 80 36 43 1000.5 1000.5 0.0
06/12:00am 14.9 2.6 11.3 79 1.9 WNW 67 82 36 44 1001.0 1001.0 0.0
 
Date/Time
EDT
Temp
°C
App
Temp
°C
Dew
Point
Rel
Hum
%
Delta-T
°C
Wind Press
QNH
hPa
Press
MSL
hPa
Rain
since 9 am
mm
Dir
 
Spd
km/h
Gust
km/h
Spd
kts
Gust
kts
05/11:30pm 14.8 3.2 11.2 79 1.9 WNW 63 80 34 43 1002.2 1002.2 0.0
05/11:00pm 14.5 3.8 10.3 76 2.2 WNW 57 72 31 39 1002.9 1002.9 0.0
05/10:30pm 14.6 3.8 9.8 73 2.5 W 57 72 31 39 1003.5 1003.5 0.0
05/10:00pm 14.6 2.7 10.0 74 2.4 W 63 80 34 43 1004.0 1004.0 0.0
05/09:30pm 14.6 3.7 9.6 72 2.6 W 57 69 31 37 1004.7 1004.7 0.0
05/09:00pm 14.4 3.6 9.2 71 2.7 W 56 69 30 37 1004.5 1004.5 0.0
05/08:42pm 14.5 4.2 9.7 73 2.5 W 54 72 29 39 1004.6 1004.6 0.0
05/08:30pm 14.6 3.3 9.4 71 2.7 W 59 74 32 40 1004.7 1004.7 0.0
05/08:12pm 14.3 3.1 8.5 68 2.9 W 57 78 31 42 1004.9 1004.9 0.0
05/08:00pm 14.3 3.3 8.5 68 2.9 W 56 65 30 35 1005.1 1005.1 0.0
05/07:33pm 14.6 2.6 8.1 65 3.2 W 61 80 33 43 1005.5 1005.5 0.0
05/07:30pm 14.7 3.4 8.0 64 3.3 W 57 72 31 39 1005.5 1005.5 0.0
05/07:29pm 14.9 4.3 8.6 66 3.2 W 54 72 29 39 1005.5 1005.5 0.0
05/07:00pm 14.8 4.9 8.3 65 3.3 W 50 59 27 32 1006.3 1006.3 0.0
05/06:30pm 15.2 4.1 8.7 65 3.3 W 57 70 31 38 1006.5 1006.5 0.0
05/06:22pm 15.1 5.0 7.6 61 3.7 W 50 69 27 37 1006.5 1006.5 0.0
05/06:00pm 15.5 5.4 7.5 59 4.0 W 50 59 27 32 1006.8 1006.8 0.0
05/05:48pm 15.8 6.1 7.6 58 4.1 W 48 67 26 36 1006.9 1006.9 0.0
05/05:30pm 15.5 5.0 5.4 51 4.8 W 50 57 27 31 1007.0 1007.0 0.0
05/05:00pm 15.6 5.5 5.5 51 4.8 W 48 57 26 31 1007.2 1007.2 0.0
05/04:30pm 16.0 7.2 7.2 56 4.4 W 43 54 23 29 1007.7 1007.7 0.0
05/04:00pm 15.7 5.7 6.2 53 4.6 W 48 59 26 32 1008.0 1008.0 0.0
05/03:30pm 15.9 6.9 7.4 57 4.2 W 44 54 24 29 1008.2 1008.2 0.0
05/03:00pm 16.0 7.0 6.4 53 4.7 W 43 52 23 28 1008.5 1008.5 0.0
05/02:30pm 15.5 5.7 5.4 51 4.8 W 46 54 25 29 1008.7 1008.7 0.0
05/02:00pm 15.5 6.2 5.7 52 4.7 W 44 56 24 30 1008.8 1008.8 0.0
05/01:30pm 15.2 6.0 6.2 55 4.3 W 44 54 24 29 1009.0 1009.0 0.0
05/01:00pm 14.9 4.9 4.3 49 4.9 WSW 46 57 25 31 1009.2 1009.2 0.0
05/12:30pm 15.5 5.5 6.0 53 4.6 WSW 48 59 26 32 1009.2 1009.2 0.0
05/12:00pm 14.9 5.5 4.3 49 4.9 WSW 43 54 23 29 1009.0 1009.0 0.0
05/11:30am 14.5 5.2 5.0 53 4.4 WSW 43 56 23 30 1009.1 1009.1 0.0
05/11:00am 13.9 5.7 2.8 47 4.9 SW 35 44 19 24 1009.1 1009.1 0.0
05/10:30am 13.8 4.3 3.9 51 4.5 SW 43 67 23 36 1008.9 1008.9 0.0
05/10:05am 13.0 6.0 1.7 46 4.9 SW 28 61 15 33 1008.4 1008.4 0.0
05/10:00am 13.0 7.0 3.1 51 4.4 WSW 24 37 13 20 1008.4 1008.4 0.0
05/09:30am 12.4 7.9 4.1 57 3.7 SW 17 28 9 15 1008.2 1008.2 0.0
05/09:00am 11.3 5.3 3.3 58 3.5 WSW 24 32 13 17 1007.5 1007.5 2.0
05/08:30am 11.1 3.7 3.9 61 3.2 WSW 32 39 17 21 1007.1 1007.1 2.0
05/08:00am 11.3 3.7 5.6 68 2.6 WSW 35 43 19 23 1006.1 1006.1 2.0
05/07:30am 11.1 1.8 5.2 67 2.7 WSW 43 52 23 28 1005.0 1005.0 2.0
05/07:00am 11.2 1.0 5.1 66 2.8 WSW 48 57 26 31 1003.8 1003.8 2.0
05/06:30am 11.4 2.6 5.5 67 2.7 WSW 41 52 22 28 1002.9 1002.9 2.0
05/06:00am 11.8 2.8 6.5 70 2.5 WSW 43 52 23 28 1002.4 1002.4 2.0
05/05:30am 11.9 0.7 6.0 67 2.8 WSW 54 67 29 36 1001.3 1001.3 2.0
05/05:00am 12.3 2.8 6.8 69 2.6 WSW 46 56 25 30 1000.9 1000.9 2.0
05/04:30am 12.2 1.6 6.9 70 2.5 WSW 52 61 28 33 1000.3 1000.3 2.0
05/04:00am 12.7 3.0 7.6 71 2.5 WSW 48 57 26 31 999.7 999.7 2.0
05/03:48am 12.5 2.0 7.2 70 2.6 WSW 52 72 28 39 998.9 998.9 2.0
05/03:34am 13.0 0.1 7.5 69 2.7 WSW 65 85 35 46 999.2 999.2 2.0
05/03:30am 13.4 0.9 7.8 69 2.8 WSW 63 76 34 41 999.3 999.3 2.0
05/03:13am 13.7 2.9 7.7 67 3.0 W 54 74 29 40 999.1 999.1 2.0
05/03:00am 14.0 4.6 8.6 70 2.7 WSW 48 61 26 33 998.9 998.9 2.0
05/02:35am 14.2 4.3 8.2 67 3.0 W 50 69 27 37 998.7 998.7 2.0
05/02:30am 14.7 5.6 9.7 72 2.6 WSW 48 57 26 31 998.7 998.7 2.0
05/02:00am 15.1 5.3 10.1 72 2.6 W 52 63 28 34 998.9 998.9 2.0
05/01:30am 15.2 6.5 11.2 77 2.1 W 48 61 26 33 999.0 999.0 2.0
05/01:00am 15.5 6.0 11.3 76 2.3 W 52 63 28 34 999.1 999.1 2.0
05/12:30am 15.5 6.0 12.3 81 1.7 W 54 63 29 34 999.2 999.2 2.0
05/12:00am 15.0 6.0 12.7 86 1.3 WNW 52 61 28 33 999.6 999.6 1.4
 
Date/Time
EDT
Temp
°C
App
Temp
°C
Dew
Point
Rel
Hum
%
Delta-T
°C
Wind Press
QNH
hPa
Press
MSL
hPa
Rain
since 9 am
mm
Dir
 
Spd
km/h
Gust
km/h
Spd
kts
Gust
kts
04/11:30pm 16.1 8.0 13.2 83 1.6 WNW 48 63 26 34 1000.1 1000.1 0.8
04/11:00pm 15.8 8.6 13.1 84 1.5 WNW 43 50 23 27 1000.4 1000.4 0.6
04/10:30pm 15.8 6.1 12.9 83 1.6 W 56 67 30 36 1001.6 1001.6 0.4
04/10:00pm 16.9 8.5 13.4 80 2.0 W 50 59 27 32 1001.6 1001.6 0.4
04/09:30pm 16.8 8.3 14.4 86 1.4 WNW 52 61 28 33 1001.7 1001.7 0.4
04/09:00pm 16.6 8.4 14.2 86 1.4 WNW 50 59 27 32 1002.2 1002.2 0.2
04/08:30pm 17.1 9.6 12.8 76 2.4 WNW 44 56 24 30 1002.2 1002.2 0.0
04/08:00pm 17.2 9.4 12.9 76 2.4 W 46 54 25 29 1002.7 1002.7 0.0
04/07:45pm 17.4 8.9 13.1 76 2.4 WNW 50 69 27 37 1002.7 1002.7 0.0
04/07:30pm 17.1 8.0 12.6 75 2.5 WNW 52 65 28 35 1002.7 1002.7 0.0
04/07:00pm 17.2 7.8 13.9 81 1.9 WNW 56 69 30 37 1003.0 1003.0 0.0
04/06:30pm 18.0 8.8 13.5 75 2.5 WNW 54 63 29 34 1003.3 1003.3 0.0
04/06:00pm 18.3 8.5 12.7 70 3.1 WNW 56 67 30 36 1003.4 1003.4 0.0
04/05:32pm 17.8 8.1 13.7 77 2.3 W 57 76 31 41 1003.7 1003.7 0.0
04/05:30pm 17.7 7.6 13.6 77 2.3 WNW 59 76 32 41 1003.7 1003.7 0.0
04/05:25pm 18.0 8.4 13.9 77 2.3 WNW 57 76 31 41 1003.8 1003.8 0.0
04/05:00pm 18.8 9.5 14.1 74 2.7 WNW 56 67 30 36 1004.1 1004.1 0.0
04/04:30pm 19.0 9.5 14.3 74 2.7 WNW 57 70 31 38 1004.4 1004.4 0.0
04/04:00pm 19.2 10.1 13.8 71 3.1 WNW 54 65 29 35 1004.5 1004.5 0.0
04/03:30pm 19.2 11.1 14.5 74 2.7 WNW 50 61 27 33 1005.0 1005.0 0.0
04/03:00pm 19.1 10.0 13.7 71 3.1 WNW 54 67 29 36 1005.5 1005.5 0.0
04/02:30pm 19.3 11.8 13.9 71 3.1 WNW 46 57 25 31 1005.8 1005.8 0.0
04/02:00pm 18.9 10.4 14.2 74 2.7 WNW 52 61 28 33 1006.1 1006.1 0.0
04/01:30pm 19.2 9.7 13.6 70 3.2 WNW 56 65 30 35 1006.4 1006.4 0.0
04/01:00pm 19.1 10.6 13.1 68 3.4 WNW 50 59 27 32 1006.8 1006.8 0.0
04/12:30pm 19.1 10.6 13.1 68 3.4 WNW 50 61 27 33 1007.3 1007.3 0.0
04/12:00pm 18.5 10.0 13.1 71 3.0 WNW 50 59 27 32 1007.8 1007.8 0.0
04/11:30am 18.5 10.2 13.8 74 2.7 WNW 50 59 27 32 1008.2 1008.2 0.0
04/11:00am 18.0 9.8 12.9 72 2.9 WNW 48 57 26 31 1008.5 1008.5 0.0
04/10:30am 17.2 8.4 12.3 73 2.7 W 50 57 27 31 1009.0 1009.0 0.0
04/10:00am 17.0 9.4 12.5 75 2.5 W 44 52 24 28 1009.1 1009.1 0.0
04/09:30am 17.2 8.8 12.3 73 2.7 WNW 48 57 26 31 1009.2 1009.2 0.0
04/09:00am 17.0 8.5 11.9 72 2.8 WNW 48 59 26 32 1009.4 1009.4 0.0
04/08:30am 16.8 8.3 12.1 74 2.6 WNW 48 57 26 31 1009.2 1009.2 0.0
04/08:00am 16.4 8.0 12.2 76 2.3 W 48 57 26 31 1009.1 1009.1 0.0
04/07:30am 16.2 6.9 12.0 76 2.3 W 52 63 28 34 1009.0 1009.0 0.0

Other Formats:

Comma delimited format used in spreadsheet applications
http://www.bom.gov.au/fwo/IDT60801/IDT60801.95964.axf

JavaScript Object Notation format (JSON) in row-major order
http://www.bom.gov.au/fwo/IDT60801/IDT60801.95964.json